Time;durP1;ratioP1;P1;durP2;ratioP2;P2;SDS_P1;SDS_P2;PMS_P1;PMS_P2;Temp;Humidity;BMP_temperature;BMP_pressure;BME280_temperature;BME280_humidity;BME280_pressure;Samples;Min_cycle;Max_cycle;Signal;HPM_P1;HPM_P2
2023/06/16 00:02:17;;;;;;;1379.50;999.90;;;;;;;;;;5054606;28;20147;-72
2023/06/16 00:04:44;;;;;;;1415.55;999.90;;;;;;;;;;5054708;28;20031;-69
2023/06/16 00:07:11;;;;;;;1359.95;999.90;;;;;;;;;;5054498;28;20025;-72
2023/06/16 00:09:38;;;;;;;1399.18;999.90;;;;;;;;;;5054392;28;20319;-70
2023/06/16 00:12:06;;;;;;;1342.63;999.90;;;;;;;;;;5054514;28;20071;-71
2023/06/16 00:14:32;;;;;;;1359.75;999.90;;;;;;;;;;5054282;28;20025;-72
2023/06/16 00:16:59;;;;;;;1287.35;999.90;;;;;;;;;;5054409;28;20025;-72
2023/06/16 00:19:29;;;;;;;1366.82;956.45;;;;;;;;;;5054446;28;20025;-69
2023/06/16 00:21:59;;;;;;;1521.65;999.90;;;;;;;;;;5054300;28;20032;-69
2023/06/16 00:24:26;;;;;;;1502.30;999.90;;;;;;;;;;5054273;28;20547;-69
2023/06/16 00:26:55;;;;;;;1514.22;999.90;;;;;;;;;;5050332;28;20037;-69
2023/06/16 00:29:22;;;;;;;1499.97;999.90;;;;;;;;;;5047607;28;20033;-71
2023/06/16 00:31:48;;;;;;;1519.40;999.90;;;;;;;;;;5053477;28;20021;-72
2023/06/16 00:34:15;;;;;;;1408.90;999.90;;;;;;;;;;5053825;28;20063;-68
2023/06/16 00:36:42;;;;;;;1271.60;999.90;;;;;;;;;;5053806;28;20497;-70
2023/06/16 00:39:09;;;;;;;1461.70;999.90;;;;;;;;;;5053982;28;20041;-71
2023/06/16 00:41:36;;;;;;;1567.95;999.90;;;;;;;;;;5053897;28;20029;-71
2023/06/16 00:44:03;;;;;;;1571.90;999.90;;;;;;;;;;5053811;28;20025;-70
2023/06/16 00:46:32;;;;;;;1586.30;999.90;;;;;;;;;;5053884;28;20486;-70
2023/06/16 00:48:59;;;;;;;1409.47;999.90;;;;;;;;;;5053878;28;20052;-71
2023/06/16 00:51:27;;;;;;;1579.32;999.90;;;;;;;;;;5053933;28;20032;-69
2023/06/16 00:53:55;;;;;;;1567.03;999.90;;;;;;;;;;5053695;28;20028;-68
2023/06/16 00:56:23;;;;;;;1550.97;999.90;;;;;;;;;;5053697;28;20441;-70
2023/06/16 00:58:51;;;;;;;1444.38;999.90;;;;;;;;;;5053426;28;20025;-69
2023/06/16 01:01:18;;;;;;;1414.20;999.90;;;;;;;;;;5053701;28;20092;-68
2023/06/16 01:03:44;;;;;;;1580.45;999.90;;;;;;;;;;5050026;28;20028;-71
2023/06/16 01:06:29;;;;;;;1560.30;999.90;;;;;;;;;;5045713;28;20505;-70
2023/06/16 01:09:01;;;;;;;1565.95;999.90;;;;;;;;;;5054196;28;20025;-69
2023/06/16 01:11:38;;;;;;;1500.75;999.90;;;;;;;;;;5054124;28;20025;-70
2023/06/16 01:14:14;;;;;;;1457.55;999.90;;;;;;;;;;5053449;28;20078;-72
2023/06/16 01:16:41;;;;;;;1600.32;999.90;;;;;;;;;;5053408;28;20489;-72
2023/06/16 01:19:10;;;;;;;1528.97;999.90;;;;;;;;;;5053306;28;20300;-68
2023/06/16 01:21:53;;;;;;;1245.38;999.90;;;;;;;;;;5053386;28;20036;-68
2023/06/16 01:24:23;;;;;;;;;;;;;;;;;;5052518;28;20520;-69
2023/06/16 01:26:52;;;;;;;1483.97;999.90;;;;;;;;;;5052232;28;19908;-73
2023/06/16 01:29:21;;;;;;;1504.57;999.90;;;;;;;;;;5052904;28;20352;-71
2023/06/16 01:31:49;;;;;;;1452.15;999.90;;;;;;;;;;5052787;28;20033;-68
2023/06/16 01:34:17;;;;;;;1496.00;999.90;;;;;;;;;;5052638;28;20045;-69
2023/06/16 01:36:44;;;;;;;1555.57;999.90;;;;;;;;;;5052750;28;20032;-68
2023/06/16 01:39:11;;;;;;;1502.85;999.90;;;;;;;;;;5046899;28;20394;-69
2023/06/16 01:41:38;;;;;;;1402.45;999.90;;;;;;;;;;5034708;28;20116;-69
2023/06/16 01:44:04;;;;;;;;;;;;;;;;;;5035607;28;25060;-67
2023/06/16 01:46:31;;;;;;;379.83;271.80;;;;;;;;;;5030445;28;20371;-67
2023/06/16 01:48:57;;;;;;;;;;;;;;;;;;5019144;28;25075;-67
2023/06/16 01:51:24;;;;;;;9.13;3.47;;;;;;;;;;5036302;28;25135;-67
2023/06/16 01:53:51;;;;;;;9.75;3.28;;;;;;;;;;5037152;28;20388;-67
2023/06/16 01:56:18;;;;;;;4.93;3.15;;;;;;;;;;5045504;28;20380;-67
2023/06/16 01:58:45;;;;;;;6.78;3.03;;;;;;;;;;5036771;28;20072;-69
2023/06/16 02:01:17;;;;;;;4.53;2.83;;;;;;;;;;5037351;28;20033;-67
2023/06/16 02:03:51;;;;;;;14.60;7.10;;;;;;;;;;5037048;28;20021;-68
2023/06/16 02:06:24;;;;;;;12.73;4.95;;;;;;;;;;5036953;28;20024;-67
2023/06/16 02:08:53;;;;;;;68.35;30.50;;;;;;;;;;5036690;28;20746;-67
2023/06/16 02:11:20;;;;;;;17.10;8.87;;;;;;;;;;5036901;28;20100;-67
2023/06/16 02:13:47;;;;;;;12.52;4.05;;;;;;;;;;5036853;28;20125;-68
2023/06/16 02:16:13;;;;;;;16.50;6.15;;;;;;;;;;5036146;28;20466;-67
2023/06/16 02:18:40;;;;;;;8.77;5.03;;;;;;;;;;5036793;28;20051;-67
2023/06/16 02:21:07;;;;;;;4.73;2.90;;;;;;;;;;5045422;28;20053;-68
2023/06/16 02:23:33;;;;;;;4.35;2.47;;;;;;;;;;5047843;28;20473;-69
2023/06/16 02:26:00;;;;;;;2.70;1.85;;;;;;;;;;5036590;28;20072;-69
2023/06/16 02:28:26;;;;;;;;;;;;;;;;;;5032686;28;20068;-68
2023/06/16 02:30:53;;;;;;;5.03;2.50;;;;;;;;;;5025408;28;25081;-68
2023/06/16 02:33:20;;;;;;;6.20;2.55;;;;;;;;;;5036524;28;20032;-69
2023/06/16 02:35:47;;;;;;;7.03;2.30;;;;;;;;;;5036087;28;20128;-68
2023/06/16 02:38:13;;;;;;;1263.15;999.90;;;;;;;;;;5047401;28;20027;-69
2023/06/16 02:40:40;;;;;;;490.73;360.05;;;;;;;;;;5055887;28;20424;-69
2023/06/16 02:43:06;;;;;;;248.10;155.30;;;;;;;;;;5056274;28;20033;-68
2023/06/16 02:45:33;;;;;;;66.63;54.47;;;;;;;;;;5056241;28;20497;-68
2023/06/16 02:48:00;;;;;;;1199.47;876.37;;;;;;;;;;5056129;28;20377;-69
2023/06/16 02:50:26;;;;;;;840.85;753.88;;;;;;;;;;5054903;28;20454;-69
2023/06/16 02:52:54;;;;;;;1317.97;993.88;;;;;;;;;;5056204;28;20476;-69
2023/06/16 02:55:21;;;;;;;1361.93;992.80;;;;;;;;;;5055304;28;20028;-68
2023/06/16 02:57:47;;;;;;;1280.03;916.97;;;;;;;;;;5055884;28;20039;-69
2023/06/16 03:00:13;;;;;;;;;;;;;;;;;;5053598;28;20459;-71
2023/06/16 03:02:40;;;;;;;;;;;;;;;;;;5045474;28;20848;-70
2023/06/16 03:05:07;;;;;;;5.22;2.78;;;;;;;;;;5054588;28;25101;-70
2023/06/16 03:07:35;;;;;;;3.80;2.50;;;;;;;;;;5055956;28;20031;-68
2023/06/16 03:10:02;;;;;;;4.53;2.40;;;;;;;;;;5050766;28;25137;-69
2023/06/16 03:12:29;;;;;;;6.55;2.03;;;;;;;;;;5055608;28;20013;-69
2023/06/16 03:14:55;;;;;;;;;;;;;;;;;;5051828;28;25070;-68
2023/06/16 03:17:21;;;;;;;;;;;;;;;;;;5038724;28;27059;-67
2023/06/16 03:19:47;;;;;;;;;;;;;;;;;;5054655;28;20289;-70
2023/06/16 03:22:14;;;;;;;;;;;;;;;;;;5055885;28;19913;-68
2023/06/16 03:24:41;;;;;;;;;;;;;;;;;;5053152;28;25061;-68
2023/06/16 03:27:08;;;;;;;;;;;;;;;;;;5056047;28;20022;-68
2023/06/16 03:29:35;;;;;;;;;;;;;;;;;;5055689;28;19959;-68
2023/06/16 03:32:02;;;;;;;;;;;;;;;;;;5055726;28;20358;-68
2023/06/16 03:34:29;;;;;;;;;;;;;;;;;;5052845;28;19923;-68
2023/06/16 03:36:55;;;;;;;;;;;;;;;;;;5054451;28;19987;-68
2023/06/16 03:39:21;;;;;;;;;;;;;;;;;;5043331;28;25046;-68
2023/06/16 03:41:47;;;;;;;;;;;;;;;;;;5045045;28;19923;-68
2023/06/16 03:44:13;;;;;;;;;;;;;;;;;;5054149;28;19913;-68
2023/06/16 03:46:40;;;;;;;;;;;;;;;;;;5046474;28;19917;-67
2023/06/16 03:49:09;;;;;;;;;;;;;;;;;;5053984;28;25113;-67
2023/06/16 03:51:35;;;;;;;;;;;;;;;;;;5044152;28;19920;-71
2023/06/16 03:54:02;;;;;;;;;;;;;;;;;;5054431;28;19920;-68
2023/06/16 03:56:28;;;;;;;;;;;;;;;;;;5054299;28;20373;-67
2023/06/16 03:58:55;;;;;;;;;;;;;;;;;;5043263;28;19916;-69
2023/06/16 04:01:22;;;;;;;;;;;;;;;;;;5054168;28;20266;-68
2023/06/16 04:03:50;;;;;;;;;;;;;;;;;;5076374;22;20331;-69
2023/06/16 04:06:17;;;;;;;;;;;;;;;;;;5022391;28;19921;-68
2023/06/16 04:08:44;;;;;;;;;;;;;;;;;;4957727;28;20286;-69
2023/06/16 04:11:11;;;;;;;;;;;;;;;;;;4933614;28;20768;-67
2023/06/16 04:13:37;;;;;;;;;;;;;;;;;;5009859;28;20262;-70
2023/06/16 04:16:03;;;;;;;;;;;;;;;;;;5026915;28;24054;-74
2023/06/16 04:18:29;;;;;;;;;;;;;;;;;;4955351;28;25154;-69
2023/06/16 04:20:56;;;;;;;;;;;;;;;;;;4899420;28;25054;-69
2023/06/16 04:23:22;;;;;;;;;;;;;;;;;;4923151;28;32085;-67
2023/06/16 04:25:48;;;;;;;;;;;;;;;;;;4911700;28;50126;-66
2023/06/16 04:28:15;;;;;;;;;;;;;;;;;;4915308;28;33076;-68
2023/06/16 04:30:42;;;;;;;;;;;;;;;;;;4912306;28;47132;-69
2023/06/16 04:33:08;;;;;;;;;;;;;;;;;;4875943;28;258204;-69
2023/06/16 04:35:35;;;;;;;;;;;;;;;;;;4419185;28;7419280;-72
2023/06/16 04:38:01;;;;;;;;;;;;;;;;;;4837806;28;460164;-69
2023/06/16 04:40:27;;;;;;;;;;;;;;;;;;4641390;28;2494203;-70
2023/06/16 04:42:57;;;;;;;;;;;;;;;;;;4521582;28;4965220;-72
2023/06/16 04:45:24;;;;;;;;;;;;;;;;;;4398966;28;5624253;-66
2023/06/16 04:47:52;;;;;;;;;;;;;;;;;;4405863;28;8932217;-68
2023/06/16 04:50:19;;;;;;;;;;;;;;;;;;4423035;28;6474199;-70
2023/06/16 04:52:47;;;;;;;;;;;;;;;;;;4767613;28;863161;-69
2023/06/16 04:55:20;;;;;;;;;;;;;;;;;;4382174;28;11191244;-69
2023/06/16 04:57:47;;;;;;;;;;;;;;;;;;4405773;28;5475226;-69
2023/06/16 05:00:50;;;;;;;;;;;;;;;;;;4369663;28;38528319;-67
2023/06/16 05:03:32;;;;;;;;;;;;;;;;;;4302122;28;21938260;-66
2023/06/16 05:06:03;;;;;;;;;;;;;;;;;;4405826;28;9350239;-65
2023/06/16 05:08:30;;;;;;;;;;;;;;;;;;4449021;28;5860244;-66
2023/06/16 05:10:57;;;;;;;;;;;;;;;;;;4687928;28;1521185;-67
2023/06/16 05:13:24;;;;;;;;;;;;;;;;;;4579646;28;6559204;-66
2023/06/16 05:15:51;;;;;;;;;;;;;;;;;;4625201;28;1682199;-67
2023/06/16 05:18:17;;;;;;;;;;;;;;;;;;4605905;28;2348166;-66
2023/06/16 05:20:44;;;;;;;;;;;;;;;;;;4848602;28;548174;-69
2023/06/16 05:23:11;;;;;;;;;;;;;;;;;;4348476;28;14769282;-69
2023/06/16 05:25:41;;;;;;;;;;;;;;;;;;4564995;28;4187383;-70
2023/06/16 05:28:10;;;;;;;;;;;;;;;;;;4573206;28;3111174;-69
2023/06/16 05:30:36;;;;;;;;;;;;;;;;;;4922519;28;183156;-69
2023/06/16 05:33:02;;;;;;;;;;;;;;;;;;4932237;28;95147;-69
2023/06/16 05:35:28;;;;;;;;;;;;;;;;;;4918604;28;141145;-68
2023/06/16 05:37:55;;;;;;;;;;;;;;;;;;4734968;28;977154;-68
2023/06/16 05:40:21;;;;;;;;;;;;;;;;;;4773814;28;1403178;-70
2023/06/16 05:42:47;;;;;;;;;;;;;;;;;;4923135;28;140139;-67
2023/06/16 05:45:14;;;;;;;;;;;;;;;;;;4918666;28;192160;-67
2023/06/16 05:47:40;;;;;;;;;;;;;;;;;;4921314;28;205168;-68
2023/06/16 05:50:06;;;;;;;;;;;;;;;;;;4935904;28;159229;-68
2023/06/16 05:52:34;;;;;;;;;;;;;;;;;;4939794;28;107231;-68
2023/06/16 05:55:01;;;;;;;;;;;;;;;;;;4945598;28;85155;-68
2023/06/16 05:57:27;;;;;;;;;;;;;;;;;;4947326;28;48086;-67
2023/06/16 05:59:53;;;;;;;;;;;;;;;;;;4953915;28;38159;-66
2023/06/16 06:02:20;;;;;;;;;;;;;;;;;;4938314;28;81154;-67
2023/06/16 06:04:46;;;;;;;;;;;;;;;;;;4937386;28;63112;-67
2023/06/16 06:07:12;;;;;;;;;;;;;;;;;;4952284;28;50116;-67
2023/06/16 06:09:38;;;;;;;;;;;;;;;;;;4947453;28;52134;-65
2023/06/16 06:12:05;;;;;;;;;;;;;;;;;;4954235;28;45150;-67
2023/06/16 06:14:31;;;;;;;;;;;;;;;;;;4952957;28;39063;-69
2023/06/16 06:16:57;;;;;;;;;;;;;;;;;;4953975;28;29142;-66
2023/06/16 06:19:24;;;;;;;;;;;;;;;;;;4958049;28;35107;-67
2023/06/16 06:21:50;;;;;;;;;;;;;;;;;;4956440;28;28152;-66
2023/06/16 06:24:16;;;;;;;;;;;;;;;;;;4955941;28;44105;-68
2023/06/16 06:26:43;;;;;;;;;;;;;;;;;;4953214;28;30096;-67
2023/06/16 06:29:09;;;;;;;;;;;;;;;;;;4955008;28;26087;-67
2023/06/16 06:31:35;;;;;;;;;;;;;;;;;;4960043;28;36105;-66
2023/06/16 06:34:01;;;;;;;;;;;;;;;;;;4959299;28;35177;-67
2023/06/16 06:36:28;;;;;;;;;;;;;;;;;;4957530;28;33156;-69
2023/06/16 06:38:54;;;;;;;;;;;;;;;;;;4958984;28;39074;-69
2023/06/16 06:41:20;;;;;;;;;;;;;;;;;;4957159;28;38101;-68
2023/06/16 06:43:46;;;;;;;;;;;;;;;;;;4957329;28;37187;-68
2023/06/16 06:46:13;;;;;;;;;;;;;;;;;;4960866;28;41110;-68
2023/06/16 06:48:39;;;;;;;;;;;;;;;;;;4958767;28;34150;-68
2023/06/16 06:51:05;;;;;;;;;;;;;;;;;;4959061;28;36081;-68
2023/06/16 06:53:32;;;;;;;;;;;;;;;;;;4961377;28;31064;-67
2023/06/16 06:55:58;;;;;;;;;;;;;;;;;;4956757;28;29073;-68
2023/06/16 06:58:25;;;;;;;;;;;;;;;;;;4961449;28;30074;-67
2023/06/16 07:00:51;;;;;;;;;;;;;;;;;;4960861;28;32076;-68
2023/06/16 07:03:17;;;;;;;;;;;;;;;;;;4959989;28;27165;-68
2023/06/16 07:05:43;;;;;;;;;;;;;;;;;;4961182;28;25085;-68
2023/06/16 07:08:10;;;;;;;;;;;;;;;;;;4951127;28;37106;-66
2023/06/16 07:10:36;;;;;;;;;;;;;;;;;;4950699;28;41163;-68
2023/06/16 07:13:02;;;;;;;;;;;;;;;;;;4950114;28;27135;-68
2023/06/16 07:15:28;;;;;;;;;;;;;;;;;;4951586;28;47123;-69
2023/06/16 07:17:55;;;;;;;;;;;;;;;;;;4952371;28;29066;-69
2023/06/16 07:20:21;;;;;;;;;;;;;;;;;;4951966;28;26147;-70
2023/06/16 07:22:47;;;;;;;;;;;;;;;;;;4952573;28;35111;-70
2023/06/16 07:25:13;;;;;;;;;;;;;;;;;;4952611;28;31058;-71
2023/06/16 07:27:39;;;;;;;;;;;;;;;;;;4952281;28;33118;-68
2023/06/16 07:30:06;;;;;;;;;;;;;;;;;;4953502;28;33066;-68
2023/06/16 07:32:32;;;;;;;;;;;;;;;;;;4953036;28;32142;-68
2023/06/16 07:34:58;;;;;;;;;;;;;;;;;;4952938;28;28101;-68
2023/06/16 07:37:24;;;;;;;;;;;;;;;;;;4951954;28;26067;-68
2023/06/16 07:39:51;;;;;;;;;;;;;;;;;;4951440;28;25078;-68
2023/06/16 07:42:17;;;;;;;;;;;;;;;;;;4952098;28;25124;-69
2023/06/16 07:44:43;;;;;;;;;;;;;;;;;;4953206;28;25099;-69
2023/06/16 07:47:10;;;;;;;;;;;;;;;;;;4953407;28;25128;-69
2023/06/16 07:49:36;;;;;;;;;;;;;;;;;;4952145;28;29093;-68
2023/06/16 07:52:03;;;;;;;;;;;;;;;;;;4952022;28;28062;-68
2023/06/16 07:54:29;;;;;;;;;;;;;;;;;;4956152;28;25065;-68
2023/06/16 07:56:55;;;;;;;;;;;;;;;;;;4953817;28;25139;-68
2023/06/16 07:59:21;;;;;;;;;;;;;;;;;;4956817;28;25088;-68
2023/06/16 08:01:48;;;;;;;;;;;;;;;;;;4956338;28;25062;-68
2023/06/16 08:04:14;;;;;;;;;;;;;;;;;;4953005;28;19982;-68
2023/06/16 08:06:40;;;;;;;;;;;;;;;;;;4955405;28;25063;-68
2023/06/16 08:09:07;;;;;;;;;;;;;;;;;;4955361;28;25070;-67
2023/06/16 08:11:33;;;;;;;;;;;;;;;;;;4952948;28;20047;-68
2023/06/16 08:14:00;;;;;;;;;;;;;;;;;;4953719;28;20420;-68
2023/06/16 08:16:26;;;;;;;;;;;;;;;;;;4954247;28;20060;-68
2023/06/16 08:18:56;;;;;;;;;;;;;;;;;;4954101;28;19981;-68
2023/06/16 08:21:22;;;;;;;;;;;;;;;;;;4956078;28;19976;-68
2023/06/16 08:23:50;;;;;;;;;;;;;;;;;;4955175;28;20076;-68
2023/06/16 08:26:16;;;;;;;;;;;;;;;;;;4955106;28;20031;-68
2023/06/16 08:28:44;;;;;;;;;;;;;;;;;;4954052;28;20022;-68
2023/06/16 08:31:10;;;;;;;;;;;;;;;;;;4952762;28;25082;-68
2023/06/16 08:33:37;;;;;;;;;;;;;;;;;;4954332;28;19998;-67
2023/06/16 08:36:03;;;;;;;;;;;;;;;;;;4952706;28;20054;-68
2023/06/16 08:38:29;;;;;;;;;;;;;;;;;;4955516;28;19993;-68
2023/06/16 08:40:55;;;;;;;;;;;;;;;;;;4952654;28;25168;-68
2023/06/16 08:43:21;;;;;;;;;;;;;;;;;;4957103;28;25072;-68
2023/06/16 08:45:47;;;;;;;;;;;;;;;;;;4955704;28;20365;-68
2023/06/16 08:48:15;;;;;;;;;;;;;;;;;;4955860;28;25058;-67
2023/06/16 08:50:41;;;;;;;;;;;;;;;;;;4954656;28;20452;-68
2023/06/16 08:53:08;;;;;;;;;;;;;;;;;;4954612;28;25080;-67
2023/06/16 08:55:37;;;;;;;;;;;;;;;;;;4961834;28;19995;-67
2023/06/16 08:58:03;;;;;;;;;;;;;;;;;;4975110;28;19991;-67
2023/06/16 09:00:30;;;;;;;;;;;;;;;;;;4983149;28;20038;-67
2023/06/16 09:02:56;;;;;;;;;;;;;;;;;;4975370;28;20070;-67
2023/06/16 09:05:23;;;;;;;;;;;;;;;;;;4984360;28;20036;-67
2023/06/16 09:07:51;;;;;;;;;;;;;;;;;;4994658;28;19976;-67
2023/06/16 09:10:17;;;;;;;;;;;;;;;;;;4990210;28;20330;-68
2023/06/16 09:12:43;;;;;;;;;;;;;;;;;;4987635;28;19982;-68
2023/06/16 09:15:10;;;;;;;;;;;;;;;;;;4985592;28;19961;-68
2023/06/16 09:17:37;;;;;;;;;;;;;;;;;;4991213;28;20545;-68
2023/06/16 09:20:06;;;;;;;;;;;;;;;;;;4980548;28;20043;-68
2023/06/16 09:22:32;;;;;;;;;;;;;;;;;;4997992;28;19945;-68
2023/06/16 09:24:59;;;;;;;;;;;;;;;;;;5013323;28;19935;-67
2023/06/16 09:27:25;;;;;;;;;;;;;;;;;;5013436;28;19936;-69
2023/06/16 09:29:51;;;;;;;;;;;;;;;;;;5008670;28;19991;-67
2023/06/16 09:32:17;;;;;;;;;;;;;;;;;;5022508;28;19930;-68
2023/06/16 09:34:44;;;;;;;;;;;;;;;;;;5021549;28;20024;-67
2023/06/16 09:37:10;;;;;;;;;;;;;;;;;;5022844;28;19960;-67
2023/06/16 09:39:36;;;;;;;;;;;;;;;;;;5022572;28;19945;-67
2023/06/16 09:42:03;;;;;;;;;;;;;;;;;;5021332;28;19974;-67
2023/06/16 09:44:29;;;;;;;;;;;;;;;;;;5022803;28;19939;-69
2023/06/16 09:46:55;;;;;;;;;;;;;;;;;;5022658;28;20311;-70
2023/06/16 09:49:21;;;;;;;;;;;;;;;;;;5020992;28;19970;-68
2023/06/16 09:51:48;;;;;;;;;;;;;;;;;;5022935;28;20407;-67
2023/06/16 09:54:14;;;;;;;;;;;;;;;;;;5022483;28;19929;-66
2023/06/16 09:56:40;;;;;;;;;;;;;;;;;;5005567;28;20343;-66
2023/06/16 09:59:06;;;;;;;;;;;;;;;;;;5005309;28;19937;-67
2023/06/16 10:01:33;;;;;;;;;;;;;;;;;;5013458;28;20292;-67
2023/06/16 10:04:00;;;;;;;;;;;;;;;;;;5014138;28;20064;-66
2023/06/16 10:06:28;;;;;;;;;;;;;;;;;;5017609;28;20320;-66
2023/06/16 10:08:54;;;;;;;;;;;;;;;;;;5017189;28;19938;-66
2023/06/16 10:11:20;;;;;;;;;;;;;;;;;;5017242;28;19923;-67
2023/06/16 10:13:47;;;;;;;;;;;;;;;;;;5017257;28;20029;-67
2023/06/16 10:16:13;;;;;;;;;;;;;;;;;;5017518;28;20410;-67
2023/06/16 10:18:39;;;;;;;;;;;;;;;;;;5017381;28;20026;-67
2023/06/16 10:21:06;;;;;;;;;;;;;;;;;;5017529;28;19931;-66
2023/06/16 10:23:32;;;;;;;;;;;;;;;;;;5017231;28;20001;-67
2023/06/16 10:25:58;;;;;;;;;;;;;;;;;;5010882;28;20388;-67
2023/06/16 10:28:25;;;;;;;;;;;;;;;;;;5016822;28;20364;-66
2023/06/16 10:30:51;;;;;;;;;;;;;;;;;;5017014;28;20390;-67
2023/06/16 10:33:18;;;;;;;;;;;;;;;;;;5016910;28;19942;-68
2023/06/16 10:35:44;;;;;;;;;;;;;;;;;;5017461;28;20277;-67
2023/06/16 10:38:10;;;;;;;;;;;;;;;;;;5016958;28;19973;-67
2023/06/16 10:40:38;;;;;;;;;;;;;;;;;;5016877;28;19938;-67
2023/06/16 10:43:10;;;;;;;;;;;;;;;;;;5016758;28;20396;-67
2023/06/16 10:45:39;;;;;;;;;;;;;;;;;;5017187;28;19940;-67
2023/06/16 10:48:11;;;;;;;;;;;;;;;;;;5016673;28;19942;-67
2023/06/16 10:50:37;;;;;;;;;;;;;;;;;;5016739;28;19929;-67
2023/06/16 10:53:03;;;;;;;;;;;;;;;;;;5016941;28;20339;-67
2023/06/16 10:55:34;;;;;;;;;;;;;;;;;;5016537;28;19983;-68
2023/06/16 10:58:00;;;;;;;;;;;;;;;;;;5016559;28;19939;-67
2023/06/16 11:00:27;;;;;;;;;;;;;;;;;;5016744;28;20444;-67
2023/06/16 11:02:53;;;;;;;;;;;;;;;;;;5013959;28;19945;-68
2023/06/16 11:05:22;;;;;;;;;;;;;;;;;;5016468;28;19943;-68
2023/06/16 11:07:48;;;;;;;;;;;;;;;;;;5016359;28;19981;-67
2023/06/16 11:10:15;;;;;;;;;;;;;;;;;;5016093;28;19961;-69
2023/06/16 11:12:41;;;;;;;;;;;;;;;;;;5016282;28;19943;-67
2023/06/16 11:15:07;;;;;;;;;;;;;;;;;;5015978;28;19961;-67
2023/06/16 11:17:34;;;;;;;;;;;;;;;;;;5009631;28;19940;-68
2023/06/16 11:20:03;;;;;;;;;;;;;;;;;;4998100;28;19998;-65
2023/06/16 11:22:30;;;;;;;;;;;;;;;;;;5032105;28;20036;-66
2023/06/16 11:24:56;;;;;;;;;;;;;;;;;;5036170;28;20301;-66
2023/06/16 11:27:22;;;;;;;;;;;;;;;;;;5035549;28;19981;-65
2023/06/16 11:29:49;;;;;;;;;;;;;;;;;;5013569;28;26051;-65
2023/06/16 11:32:15;;;;;;;;;;;;;;;;;;4949099;28;25156;-66
2023/06/16 11:34:41;;;;;;;;;;;;;;;;;;4965281;28;25166;-65
2023/06/16 11:37:07;;;;;;;;;;;;;;;;;;4968635;28;20043;-65
2023/06/16 11:39:33;;;;;;;;;;;;;;;;;;4987087;28;20028;-64
2023/06/16 11:42:00;;;;;;;;;;;;;;;;;;5005035;28;20017;-64
2023/06/16 11:44:26;;;;;;;;;;;;;;;;;;5023517;28;19967;-64
2023/06/16 11:46:52;;;;;;;;;;;;;;;;;;5017992;28;19994;-64
2023/06/16 11:49:19;;;;;;;;;;;;;;;;;;5018962;28;20045;-66
2023/06/16 11:51:45;;;;;;;;;;;;;;;;;;5017481;28;20002;-64
2023/06/16 11:54:11;;;;;;;;;;;;;;;;;;5027781;28;19947;-66
2023/06/16 11:56:40;;;;;;;;;;;;;;;;;;5017098;28;20021;-65
2023/06/16 11:59:08;;;;;;;;;;;;;;;;;;5024118;28;19947;-65
2023/06/16 12:01:35;;;;;;;;;;;;;;;;;;5023928;28;20031;-64
2023/06/16 12:04:01;;;;;;;;;;;;;;;;;;5023530;28;20043;-64
2023/06/16 12:06:27;;;;;;;;;;;;;;;;;;5025137;28;19951;-70
2023/06/16 12:08:53;;;;;;;;;;;;;;;;;;5023420;28;19943;-70
2023/06/16 12:11:21;;;;;;;;;;;;;;;;;;5023867;28;19937;-65
2023/06/16 12:13:47;;;;;;;;;;;;;;;;;;5025608;28;19965;-65
2023/06/16 12:16:13;;;;;;;;;;;;;;;;;;5002091;28;25079;-66
2023/06/16 12:18:40;;;;;;;;;;;;;;;;;;4964102;28;25066;-66
2023/06/16 12:21:06;;;;;;;;;;;;;;;;;;4961223;28;19995;-66
2023/06/16 12:23:33;;;;;;;;;;;;;;;;;;4972939;28;20090;-65
2023/06/16 12:25:59;;;;;;;;;;;;;;;;;;4989831;28;19964;-64
2023/06/16 12:28:26;;;;;;;;;;;;;;;;;;5014425;28;20047;-66
2023/06/16 12:30:52;;;;;;;;;;;;;;;;;;5006792;28;19953;-66
2023/06/16 12:33:18;;;;;;;;;;;;;;;;;;5015261;28;20406;-66
2023/06/16 12:35:47;;;;;;;;;;;;;;;;;;5018762;28;20019;-64
2023/06/16 12:38:13;;;;;;;;;;;;;;;;;;5019907;28;19944;-65
2023/06/16 12:40:39;;;;;;;;;;;;;;;;;;5018145;28;19936;-65
2023/06/16 12:43:06;;;;;;;;;;;;;;;;;;5018640;28;19992;-65
2023/06/16 12:45:32;;;;;;;;;;;;;;;;;;5019283;28;19983;-66
2023/06/16 12:47:58;;;;;;;;;;;;;;;;;;5016914;28;19983;-66
2023/06/16 12:50:24;;;;;;;;;;;;;;;;;;5016776;28;20027;-65
2023/06/16 12:52:50;;;;;;;;;;;;;;;;;;5003004;28;19997;-66
2023/06/16 12:55:17;;;;;;;;;;;;;;;;;;5019045;28;19939;-64
2023/06/16 12:57:43;;;;;;;;;;;;;;;;;;5018632;28;19956;-66
2023/06/16 13:00:09;;;;;;;;;;;;;;;;;;5024002;28;20431;-65
2023/06/16 13:02:35;;;;;;;;;;;;;;;;;;5025440;28;19937;-66
2023/06/16 13:05:02;;;;;;;;;;;;;;;;;;5025568;28;19936;-67
2023/06/16 13:07:28;;;;;;;;;;;;;;;;;;5025342;28;19935;-65
2023/06/16 13:09:54;;;;;;;;;;;;;;;;;;5023706;28;20300;-65
2023/06/16 13:12:21;;;;;;;;;;;;;;;;;;5022601;28;19939;-67
2023/06/16 13:14:47;;;;;;;;;;;;;;;;;;5023876;28;20052;-64
2023/06/16 13:17:13;;;;;;;;;;;;;;;;;;5017737;28;19978;-66
2023/06/16 13:19:39;;;;;;;;;;;;;;;;;;5022860;28;19934;-66
2023/06/16 13:22:07;;;;;;;;;;;;;;;;;;5020907;28;20280;-66
2023/06/16 13:24:33;;;;;;;;;;;;;;;;;;5020105;28;19937;-66
2023/06/16 13:26:59;;;;;;;;;;;;;;;;;;5022720;28;19962;-66
2023/06/16 13:29:26;;;;;;;;;;;;;;;;;;5022072;28;19937;-65
2023/06/16 13:31:52;;;;;;;;;;;;;;;;;;5019574;28;19944;-66
2023/06/16 13:34:19;;;;;;;;;;;;;;;;;;5023102;28;20136;-65
2023/06/16 13:36:45;;;;;;;;;;;;;;;;;;5023362;28;19946;-65
2023/06/16 13:39:14;;;;;;;;;;;;;;;;;;5021219;28;19950;-66
2023/06/16 13:41:40;;;;;;;;;;;;;;;;;;5021994;28;19936;-66
2023/06/16 13:44:09;;;;;;;;;;;;;;;;;;5023486;28;19941;-67
2023/06/16 13:46:36;;;;;;;;;;;;;;;;;;5019780;28;19933;-65
2023/06/16 13:49:02;;;;;;;;;;;;;;;;;;5022970;28;20419;-67
2023/06/16 13:51:28;;;;;;;;;;;;;;;;;;5033365;28;19943;-67
2023/06/16 13:53:54;;;;;;;;;;;;;;;;;;5019409;28;20410;-66
2023/06/16 13:56:20;;;;;;;;;;;;;;;;;;4999470;28;19946;-67
2023/06/16 13:58:46;;;;;;;;;;;;;;;;;;4997172;28;19942;-66
2023/06/16 14:01:13;;;;;;;;;;;;;;;;;;5013694;28;20382;-67
2023/06/16 14:03:39;;;;;;;;;;;;;;;;;;5013361;28;20051;-66
2023/06/16 14:06:06;;;;;;;;;;;;;;;;;;5011047;28;19943;-66
2023/06/16 14:08:32;;;;;;;;;;;;;;;;;;4993915;28;19973;-66
2023/06/16 14:10:58;;;;;;;;;;;;;;;;;;4993583;28;20392;-66
2023/06/16 14:13:25;;;;;;;;;;;;;;;;;;4994463;28;20075;-66
2023/06/16 14:15:51;;;;;;;;;;;;;;;;;;5013397;28;19944;-65
2023/06/16 14:18:18;;;;;;;;;;;;;;;;;;5013491;28;19989;-67
2023/06/16 14:20:44;;;;;;;;;;;;;;;;;;5013364;28;20370;-65
2023/06/16 14:23:10;;;;;;;;;;;;;;;;;;5013363;28;19989;-65
2023/06/16 14:25:37;;;;;;;;;;;;;;;;;;5013503;28;19941;-66
2023/06/16 14:28:03;;;;;;;;;;;;;;;;;;5013300;28;19975;-66
2023/06/16 14:30:29;;;;;;;;;;;;;;;;;;5013141;28;19930;-66
2023/06/16 14:32:56;;;;;;;;;;;;;;;;;;5013306;28;19976;-66
2023/06/16 14:35:22;;;;;;;;;;;;;;;;;;5013340;28;19931;-70
2023/06/16 14:37:48;;;;;;;;;;;;;;;;;;5014040;28;19937;-66
2023/06/16 14:40:15;;;;;;;;;;;;;;;;;;5013635;28;19930;-67
2023/06/16 14:42:41;;;;;;;;;;;;;;;;;;5012927;28;19929;-67
2023/06/16 14:45:07;;;;;;;;;;;;;;;;;;5013227;28;20300;-66
2023/06/16 14:47:33;;;;;;;;;;;;;;;;;;5013168;28;19934;-67
2023/06/16 14:49:59;;;;;;;;;;;;;;;;;;4998849;28;19943;-67
2023/06/16 14:52:26;;;;;;;;;;;;;;;;;;4996051;28;20338;-70
2023/06/16 14:54:52;;;;;;;;;;;;;;;;;;4997048;28;19941;-69
2023/06/16 14:57:18;;;;;;;;;;;;;;;;;;4997030;28;19975;-70
2023/06/16 14:59:44;;;;;;;;;;;;;;;;;;4997001;28;19940;-65
2023/06/16 15:02:11;;;;;;;;;;;;;;;;;;4997233;28;19930;-67
2023/06/16 15:04:37;;;;;;;;;;;;;;;;;;4997363;28;19971;-66
2023/06/16 15:07:03;;;;;;;;;;;;;;;;;;5008466;28;19936;-66
2023/06/16 15:09:29;;;;;;;;;;;;;;;;;;5016921;28;19948;-66
2023/06/16 15:11:56;;;;;;;;;;;;;;;;;;5016355;28;20383;-66
2023/06/16 15:14:22;;;;;;;;;;;;;;;;;;5015994;28;20355;-66
2023/06/16 15:16:48;;;;;;;;;;;;;;;;;;5016203;28;19940;-66
2023/06/16 15:19:14;;;;;;;;;;;;;;;;;;5016523;28;19964;-65
2023/06/16 15:21:40;;;;;;;;;;;;;;;;;;5016325;28;19995;-65
2023/06/16 15:24:07;;;;;;;;;;;;;;;;;;5016092;28;20447;-66
2023/06/16 15:26:33;;;;;;;;;;;;;;;;;;5016207;28;19932;-66
2023/06/16 15:28:59;;;;;;;;;;;;;;;;;;5016189;28;19960;-66
2023/06/16 15:31:26;;;;;;;;;;;;;;;;;;5016070;28;19942;-66
2023/06/16 15:33:52;;;;;;;;;;;;;;;;;;5017246;28;19941;-66
2023/06/16 15:36:18;;;;;;;;;;;;;;;;;;5016991;28;19934;-66
2023/06/16 15:38:44;;;;;;;;;;;;;;;;;;5017046;28;19934;-66
2023/06/16 15:41:10;;;;;;;;;;;;;;;;;;5016863;28;19987;-66
2023/06/16 15:43:36;;;;;;;;;;;;;;;;;;5016883;28;20391;-66
2023/06/16 15:46:03;;;;;;;;;;;;;;;;;;5016655;28;20310;-66
2023/06/16 15:48:29;;;;;;;;;;;;;;;;;;5016604;28;20470;-67
2023/06/16 15:50:55;;;;;;;;;;;;;;;;;;5016511;28;25071;-66
2023/06/16 15:53:21;;;;;;;;;;;;;;;;;;5016468;28;19955;-67
2023/06/16 15:55:48;;;;;;;;;;;;;;;;;;5016798;28;20404;-66
2023/06/16 15:58:14;;;;;;;;;;;;;;;;;;5016560;28;20384;-66
2023/06/16 16:00:40;;;;;;;;;;;;;;;;;;5016458;28;20033;-67
2023/06/16 16:03:06;;;;;;;;;;;;;;;;;;5016179;28;20311;-67
2023/06/16 16:05:33;;;;;;;;;;;;;;;;;;5016258;28;19933;-67